This is the latest recevied weather packets stored in our database for station/object N2PPN. If no packets are shown the sender has not sent any weather packets the latest 10 day(s).
| Time | Temp. | Humidity | Pressure | Rain* | Wind** | Luminosity | Snow |
|---|---|---|---|---|---|---|---|
| 1777576499 | 14.44° C | 81% | 1009.5 hPa | 0 mm | - | 885 W/m² | - |
| 1777576195 | 13.33° C | 85% | 1009.4 hPa | 0 mm | - | 332 W/m² | - |
| 1777575890 | 12.78° C | 87% | 1009.9 hPa | 0 mm | - | 128 W/m² | - |
| 1777575587 | 12.78° C | 87% | 1009.9 hPa | 0 mm | - | 75 W/m² | - |
| 1777575284 | 12.78° C | 87% | 1009.8 hPa | 0 mm | - | 102 W/m² | - |
| 1777574979 | 12.78° C | 87% | 1009.9 hPa | 0 mm | - | 248 W/m² | - |
| 1777574676 | 12.78° C | 88% | 1009.9 hPa | 0 mm | - | 225 W/m² | - |
| 1777574373 | 12.78° C | 88% | 1009.8 hPa | 0 mm | - | 164 W/m² | - |
| 1777574068 | 12.78° C | 89% | 1009.7 hPa | 0 mm | - | 127 W/m² | - |
| 1777573763 | 12.22° C | 88% | 1009.8 hPa | 0 mm | - | 120 W/m² | - |
| 1777573460 | 12.78° C | 88% | 1009.9 hPa | 0 mm | - | 128 W/m² | - |
| 1777573155 | 12.78° C | 88% | 1009.9 hPa | 0 mm | - | 232 W/m² | - |
| 1777572852 | 12.22° C | 89% | 1009.9 hPa | 0 mm | - | 219 W/m² | - |
| 1777572548 | 12.22° C | 89% | 1009.8 hPa | 0 mm | - | 83 W/m² | - |
| 1777572243 | 12.22° C | 88% | 1010 hPa | 0 mm | - | 111 W/m² | - |
| 1777571939 | 12.22° C | 88% | 1010.3 hPa | 0 mm | - | 96 W/m² | - |
| 1777571639 | 12.22° C | 88% | 1010.2 hPa | 0 mm | - | 97 W/m² | - |
| 1777571337 | 12.22° C | 89% | 1010 hPa | 0 mm | - | 85 W/m² | - |
| 1777571033 | 12.22° C | 89% | 1010.1 hPa | 0 mm | - | 80 W/m² | - |
| 1777570729 | 12.22° C | 89% | 1010.2 hPa | 0 mm | - | 77 W/m² | - |
| 1777570426 | 12.22° C | 88% | 1010.2 hPa | 0 mm | - | 84 W/m² | - |
| 1777570121 | 12.78° C | 86% | 1009.8 hPa | 0 mm | - | 133 W/m² | - |
| 1777569817 | 12.78° C | 88% | 1010 hPa | 0 mm | - | 207 W/m² | - |
| 1777569513 | 12.22° C | 88% | 1010.1 hPa | 0 mm | - | 241 W/m² | - |
| 1777569210 | 12.22° C | 88% | 1009.7 hPa | 0 mm | - | 306 W/m² | - |
* Rain latest hour (hover to see other rain measurements)
** Current wind speed in m/s (hover to see current wind gust speed)